Time;durP1;ratioP1;P1;durP2;ratioP2;P2;SDS_P1;SDS_P2;PMS_P1;PMS_P2;Temp;Humidity;BMP_temperature;BMP_pressure;BME280_temperature;BME280_humidity;BME280_pressure;Samples;Min_cycle;Max_cycle;Signal;HPM_P1;HPM_P2
2022/01/03 00:00:16;;;;;;;3.20;2.90;;;;;;;;;;5025306;28;20025;-29
2022/01/03 00:02:42;;;;;;;4.15;2.80;;;;;;;;;;5025476;28;20033;-30
2022/01/03 00:05:08;;;;;;;3.70;2.90;;;;;;;;;;5025245;28;20075;-34
2022/01/03 00:07:40;;;;;;;3.60;2.85;;;;;;;;;;5025234;28;20031;-28
2022/01/03 00:10:06;;;;;;;3.63;2.72;;;;;;;;;;5025312;28;20029;-32
2022/01/03 00:12:32;;;;;;;3.03;2.28;;;;;;;;;;5025516;28;20041;-34
2022/01/03 00:14:58;;;;;;;3.67;2.90;;;;;;;;;;5025259;28;20041;-31
2022/01/03 00:17:24;;;;;;;3.55;2.60;;;;;;;;;;5025541;28;20095;-32
2022/01/03 00:19:49;;;;;;;4.47;3.00;;;;;;;;;;5025008;28;20495;-31
2022/01/03 00:22:16;;;;;;;4.63;2.55;;;;;;;;;;5025072;28;20052;-34
2022/01/03 00:24:45;;;;;;;3.55;2.78;;;;;;;;;;5023694;28;20043;-35
2022/01/03 00:27:13;;;;;;;5.80;2.70;;;;;;;;;;5024738;28;20021;-35
2022/01/03 00:29:47;;;;;;;3.25;2.70;;;;;;;;;;5025204;28;20112;-30
2022/01/03 00:32:13;;;;;;;4.03;2.70;;;;;;;;;;5024745;28;20030;-33
2022/01/03 00:34:39;;;;;;;2.72;2.47;;;;;;;;;;5024241;28;20029;-32
2022/01/03 00:37:45;;;;;;;3.35;2.75;;;;;;;;;;5036603;28;20401;-32
2022/01/03 00:40:12;;;;;;;4.30;2.60;;;;;;;;;;5040575;28;20419;-37
2022/01/03 00:42:37;;;;;;;3.20;2.90;;;;;;;;;;5043314;28;20025;-30
2022/01/03 00:45:03;;;;;;;6.85;3.00;;;;;;;;;;5042147;28;20025;-30
2022/01/03 00:47:33;;;;;;;3.67;2.97;;;;;;;;;;5044135;28;20025;-30
2022/01/03 00:50:06;;;;;;;7.00;3.08;;;;;;;;;;5043930;28;20090;-32
2022/01/03 00:52:32;;;;;;;4.75;2.45;;;;;;;;;;5044088;28;20071;-30
2022/01/03 00:54:58;;;;;;;4.10;2.13;;;;;;;;;;5044030;28;20037;-33
2022/01/03 00:58:05;;;;;;;3.75;2.65;;;;;;;;;;5043849;28;20029;-35
2022/01/03 01:00:36;;;;;;;4.13;2.63;;;;;;;;;;5043551;28;20045;-35
2022/01/03 01:03:10;;;;;;;2.80;2.35;;;;;;;;;;5044122;28;20029;-31
2022/01/03 01:05:37;;;;;;;7.10;2.97;;;;;;;;;;5044007;28;20079;-32
2022/01/03 01:08:02;;;;;;;2.80;2.38;;;;;;;;;;5025092;28;20890;-31
2022/01/03 01:10:29;;;;;;;3.15;2.63;;;;;;;;;;5025482;28;20120;-36
2022/01/03 01:12:55;;;;;;;6.35;2.35;;;;;;;;;;5043567;28;20087;-29
2022/01/03 01:15:20;;;;;;;4.15;2.83;;;;;;;;;;5043080;28;20733;-33
2022/01/03 01:17:46;;;;;;;8.68;2.50;;;;;;;;;;5043195;28;20082;-32
2022/01/03 01:20:15;;;;;;;2.72;2.25;;;;;;;;;;5041820;28;20102;-32
2022/01/03 01:22:42;;;;;;;3.40;2.58;;;;;;;;;;5043273;28;20542;-30
2022/01/03 01:27:50;;;;;;;3.28;2.50;;;;;;;;;;5043432;28;20762;-28
2022/01/03 01:30:20;;;;;;;4.65;2.70;;;;;;;;;;5042646;28;20032;-35
2022/01/03 01:33:05;;;;;;;3.05;2.40;;;;;;;;;;5037887;28;20401;-31
2022/01/03 01:35:47;;;;;;;4.78;2.85;;;;;;;;;;5040110;28;20085;-34
2022/01/03 01:38:17;;;;;;;3.38;2.53;;;;;;;;;;5022776;28;20040;-34
2022/01/03 01:40:51;;;;;;;2.83;2.40;;;;;;;;;;5023210;28;20202;-33
2022/01/03 01:43:37;;;;;;;2.92;2.63;;;;;;;;;;5023286;28;20034;-30
2022/01/03 01:46:30;;;;;;;3.50;2.60;;;;;;;;;;5021926;28;20393;-32
2022/01/03 01:48:55;;;;;;;3.08;2.42;;;;;;;;;;5022889;28;20105;-32
2022/01/03 01:51:22;;;;;;;3.92;2.45;;;;;;;;;;5022413;28;20033;-31
2022/01/03 01:53:53;;;;;;;4.15;3.00;;;;;;;;;;5022829;28;20146;-31
2022/01/03 01:56:21;;;;;;;5.72;2.85;;;;;;;;;;5021505;28;20022;-30
2022/01/03 01:59:08;;;;;;;4.20;2.75;;;;;;;;;;5022854;28;20038;-29
2022/01/03 02:01:54;;;;;;;3.95;2.60;;;;;;;;;;5022639;28;20044;-35
2022/01/03 02:04:23;;;;;;;2.53;2.28;;;;;;;;;;5022567;28;20492;-31
2022/01/03 02:06:48;;;;;;;3.20;2.90;;;;;;;;;;5022711;28;20129;-32
2022/01/03 02:09:24;;;;;;;4.20;2.90;;;;;;;;;;5020781;28;20140;-32
2022/01/03 02:11:54;;;;;;;2.95;2.55;;;;;;;;;;5022790;28;20484;-33
2022/01/03 02:14:21;;;;;;;5.10;3.00;;;;;;;;;;5021898;28;20072;-34
2022/01/03 02:16:47;;;;;;;3.28;2.60;;;;;;;;;;5022235;28;20060;-35
2022/01/03 02:19:13;;;;;;;3.58;2.50;;;;;;;;;;5020935;28;20080;-33
2022/01/03 02:21:38;;;;;;;3.53;2.92;;;;;;;;;;5022591;28;20021;-32
2022/01/03 02:24:04;;;;;;;4.90;2.97;;;;;;;;;;5022241;28;20037;-37
2022/01/03 02:26:30;;;;;;;4.20;3.33;;;;;;;;;;5022659;28;20136;-30
2022/01/03 02:28:56;;;;;;;4.35;3.00;;;;;;;;;;5025641;28;20131;-32
2022/01/03 02:31:22;;;;;;;3.92;3.05;;;;;;;;;;5042307;28;20055;-33
2022/01/03 02:33:47;;;;;;;4.63;2.70;;;;;;;;;;5042495;28;20029;-29
2022/01/03 02:36:13;;;;;;;3.28;2.72;;;;;;;;;;5033845;28;20499;-34
2022/01/03 02:38:39;;;;;;;3.35;2.88;;;;;;;;;;5021359;28;20040;-31
2022/01/03 02:41:04;;;;;;;7.22;2.92;;;;;;;;;;5022172;28;20537;-35
2022/01/03 02:43:30;;;;;;;3.78;2.15;;;;;;;;;;5022262;28;20033;-36
2022/01/03 02:45:56;;;;;;;6.53;2.90;;;;;;;;;;5022350;28;20563;-35
2022/01/03 02:48:22;;;;;;;4.15;3.08;;;;;;;;;;5022112;28;20132;-33
2022/01/03 02:50:48;;;;;;;3.58;3.05;;;;;;;;;;5021820;28;20036;-32
2022/01/03 02:53:13;;;;;;;6.68;3.05;;;;;;;;;;5021922;28;20029;-29
2022/01/03 02:55:39;;;;;;;3.65;2.92;;;;;;;;;;5022242;28;20029;-36
2022/01/03 02:58:07;;;;;;;4.18;3.03;;;;;;;;;;5021699;28;20026;-32
2022/01/03 03:00:44;;;;;;;3.20;2.90;;;;;;;;;;5021839;28;20637;-34
2022/01/03 03:03:09;;;;;;;3.53;2.92;;;;;;;;;;5022232;28;20226;-32
2022/01/03 03:05:35;;;;;;;2.95;2.63;;;;;;;;;;5022086;28;20424;-29
2022/01/03 03:08:00;;;;;;;4.20;2.92;;;;;;;;;;5023574;28;20049;-35
2022/01/03 03:10:26;;;;;;;4.03;2.80;;;;;;;;;;5025895;28;20542;-34
2022/01/03 03:12:52;;;;;;;3.25;2.95;;;;;;;;;;5025566;28;20559;-30
2022/01/03 03:15:17;;;;;;;3.60;3.10;;;;;;;;;;5025975;28;20104;-32
2022/01/03 03:17:43;;;;;;;4.30;2.70;;;;;;;;;;5025747;28;20785;-35
2022/01/03 03:20:16;;;;;;;3.10;2.60;;;;;;;;;;5026068;28;20091;-33
2022/01/03 03:22:41;;;;;;;4.43;3.37;;;;;;;;;;5025703;28;20064;-31
2022/01/03 03:25:11;;;;;;;3.38;2.92;;;;;;;;;;5025940;28;20088;-32
2022/01/03 03:27:43;;;;;;;3.30;2.95;;;;;;;;;;5025595;28;20729;-29
2022/01/03 03:30:09;;;;;;;2.95;2.65;;;;;;;;;;5024959;28;20025;-35
2022/01/03 03:32:35;;;;;;;6.40;2.88;;;;;;;;;;5025515;28;20029;-32
2022/01/03 03:35:00;;;;;;;4.95;3.47;;;;;;;;;;5025646;28;20040;-32
2022/01/03 03:37:26;;;;;;;5.60;3.03;;;;;;;;;;5043114;28;20083;-29
2022/01/03 03:39:51;;;;;;;4.68;3.00;;;;;;;;;;5045101;28;20135;-33
2022/01/03 03:42:17;;;;;;;5.10;3.17;;;;;;;;;;5045159;28;20040;-34
2022/01/03 03:44:45;;;;;;;3.58;3.05;;;;;;;;;;5045092;28;20559;-33
2022/01/03 03:47:10;;;;;;;3.25;2.85;;;;;;;;;;5044903;28;20114;-34
2022/01/03 03:49:36;;;;;;;3.72;3.03;;;;;;;;;;5044773;28;20053;-34
2022/01/03 03:52:02;;;;;;;3.25;2.95;;;;;;;;;;5045026;28;20036;-29
2022/01/03 03:54:30;;;;;;;4.10;2.90;;;;;;;;;;5045027;28;20036;-33
2022/01/03 03:56:57;;;;;;;3.55;3.00;;;;;;;;;;5044871;28;20039;-32
2022/01/03 03:59:23;;;;;;;3.80;2.80;;;;;;;;;;5044671;28;20491;-34
2022/01/03 04:01:49;;;;;;;3.22;2.90;;;;;;;;;;5044902;28;20025;-32
2022/01/03 04:04:14;;;;;;;4.18;2.70;;;;;;;;;;5044627;28;20110;-33
2022/01/03 04:06:40;;;;;;;3.67;2.97;;;;;;;;;;5044467;28;20060;-31
2022/01/03 04:09:05;;;;;;;4.45;3.00;;;;;;;;;;5044211;28;20049;-37
2022/01/03 04:11:31;;;;;;;4.05;2.42;;;;;;;;;;5044630;28;20487;-34
2022/01/03 04:13:59;;;;;;;3.70;2.80;;;;;;;;;;5044595;28;20037;-32
2022/01/03 04:16:24;;;;;;;4.47;2.72;;;;;;;;;;5044637;28;20087;-35
2022/01/03 04:18:50;;;;;;;5.82;3.35;;;;;;;;;;5044016;28;20474;-35
2022/01/03 04:21:15;;;;;;;3.90;2.88;;;;;;;;;;5044075;28;20025;-32
2022/01/03 04:23:41;;;;;;;5.15;2.70;;;;;;;;;;5044148;28;20032;-29
2022/01/03 04:26:06;;;;;;;4.28;2.80;;;;;;;;;;5044325;28;20029;-31
2022/01/03 04:28:32;;;;;;;6.75;2.70;;;;;;;;;;5044440;28;20026;-29
2022/01/03 04:30:57;;;;;;;8.95;3.10;;;;;;;;;;5059266;28;20112;-31
2022/01/03 04:33:23;;;;;;;3.72;2.83;;;;;;;;;;5044363;28;20412;-36
2022/01/03 04:35:48;;;;;;;4.55;2.40;;;;;;;;;;5043697;28;20025;-30
2022/01/03 04:38:14;;;;;;;4.20;2.53;;;;;;;;;;5043935;28;20078;-31
2022/01/03 04:40:40;;;;;;;3.40;2.60;;;;;;;;;;5043987;28;20574;-34
2022/01/03 04:43:06;;;;;;;5.57;2.60;;;;;;;;;;5044180;28;20438;-32
2022/01/03 04:45:31;;;;;;;4.82;2.33;;;;;;;;;;5044135;28;20438;-35
2022/01/03 04:47:57;;;;;;;4.30;2.85;;;;;;;;;;5043771;28;20041;-35
2022/01/03 04:50:22;;;;;;;4.28;3.08;;;;;;;;;;5042917;28;20120;-30
2022/01/03 04:52:48;;;;;;;5.68;2.60;;;;;;;;;;5043613;28;20114;-34
2022/01/03 04:55:13;;;;;;;6.20;2.72;;;;;;;;;;5043872;28;20026;-35
2022/01/03 04:57:39;;;;;;;3.47;2.10;;;;;;;;;;5043841;28;20522;-30
2022/01/03 05:00:05;;;;;;;5.35;2.67;;;;;;;;;;5043767;28;20032;-31
2022/01/03 05:02:31;;;;;;;2.55;2.28;;;;;;;;;;5043109;28;20528;-29
2022/01/03 05:04:56;;;;;;;3.20;2.47;;;;;;;;;;5043590;28;20048;-36
2022/01/03 05:07:22;;;;;;;2.42;1.95;;;;;;;;;;5043700;28;20249;-30
2022/01/03 05:09:47;;;;;;;4.15;2.70;;;;;;;;;;5043306;28;20033;-32
2022/01/03 05:12:13;;;;;;;5.32;2.40;;;;;;;;;;5043745;28;20064;-31
2022/01/03 05:14:40;;;;;;;5.70;2.47;;;;;;;;;;5043969;28;20931;-28
2022/01/03 05:17:05;;;;;;;3.67;2.70;;;;;;;;;;5043764;28;20037;-32
2022/01/03 05:19:31;;;;;;;2.50;2.03;;;;;;;;;;5043146;28;20463;-31
2022/01/03 05:21:56;;;;;;;2.83;2.28;;;;;;;;;;5043057;28;20109;-29
2022/01/03 05:24:22;;;;;;;3.53;2.20;;;;;;;;;;5042916;28;20032;-31
2022/01/03 05:26:47;;;;;;;6.90;2.88;;;;;;;;;;5043307;28;20073;-29
2022/01/03 05:29:13;;;;;;;5.57;2.78;;;;;;;;;;5042863;28;20427;-34
2022/01/03 05:31:38;;;;;;;3.47;2.45;;;;;;;;;;5043128;28;20060;-33
2022/01/03 05:34:04;;;;;;;5.05;2.50;;;;;;;;;;5042915;28;20926;-33
2022/01/03 05:36:29;;;;;;;2.67;2.08;;;;;;;;;;5029963;28;20029;-35
2022/01/03 05:38:54;;;;;;;4.72;2.60;;;;;;;;;;5022881;28;20032;-33
2022/01/03 05:41:20;;;;;;;2.88;2.30;;;;;;;;;;5022983;28;20029;-33
2022/01/03 05:43:46;;;;;;;3.05;2.22;;;;;;;;;;5022865;28;20044;-34
2022/01/03 05:46:14;;;;;;;3.30;2.40;;;;;;;;;;5023023;28;20029;-33
2022/01/03 05:48:40;;;;;;;4.35;2.30;;;;;;;;;;5023077;28;20057;-34
2022/01/03 05:51:05;;;;;;;2.28;2.08;;;;;;;;;;5023159;28;20048;-36
2022/01/03 05:53:31;;;;;;;3.47;2.63;;;;;;;;;;5022844;28;20042;-34
2022/01/03 05:55:57;;;;;;;2.40;2.15;;;;;;;;;;5022948;28;20033;-31
2022/01/03 05:58:23;;;;;;;3.08;2.30;;;;;;;;;;5022550;28;20495;-35
2022/01/03 06:00:48;;;;;;;6.47;2.63;;;;;;;;;;5041372;28;20063;-31
2022/01/03 06:03:17;;;;;;;6.22;2.40;;;;;;;;;;5042705;28;20021;-30
2022/01/03 06:06:05;;;;;;;6.53;2.42;;;;;;;;;;5042659;28;20050;-30
2022/01/03 06:08:28;;;;;;;6.85;2.72;;;;;;;;;;5042374;28;20053;-34
2022/01/03 06:10:54;;;;;;;5.78;2.28;;;;;;;;;;5042290;28;20035;-32
2022/01/03 06:13:20;;;;;;;3.15;2.75;;;;;;;;;;5042178;28;20040;-35
2022/01/03 06:15:45;;;;;;;7.07;2.90;;;;;;;;;;5042161;28;20447;-31
2022/01/03 06:18:12;;;;;;;8.48;3.10;;;;;;;;;;5042122;28;20591;-34
2022/01/03 06:20:38;;;;;;;4.13;3.38;;;;;;;;;;5042165;28;20040;-36
2022/01/03 06:23:04;;;;;;;5.43;3.65;;;;;;;;;;5042075;28;20024;-31
2022/01/03 06:25:29;;;;;;;7.97;4.05;;;;;;;;;;5042220;28;20074;-33
2022/01/03 06:27:55;;;;;;;7.72;3.30;;;;;;;;;;5042190;28;20154;-34
2022/01/03 06:30:21;;;;;;;7.30;3.00;;;;;;;;;;5042166;28;20083;-34
2022/01/03 06:32:46;;;;;;;7.32;3.50;;;;;;;;;;5042471;28;20032;-35
2022/01/03 06:35:12;;;;;;;3.40;2.72;;;;;;;;;;5041473;28;20533;-33
2022/01/03 06:37:37;;;;;;;4.47;2.95;;;;;;;;;;5041813;28;20029;-34
2022/01/03 06:40:05;;;;;;;4.10;2.90;;;;;;;;;;5042090;28;20116;-32
2022/01/03 06:42:31;;;;;;;4.55;3.30;;;;;;;;;;5042285;28;20028;-36
2022/01/03 06:44:57;;;;;;;3.45;2.80;;;;;;;;;;5046322;28;20032;-30
2022/01/03 06:47:23;;;;;;;4.40;2.92;;;;;;;;;;5046260;28;20553;-35
2022/01/03 06:49:48;;;;;;;3.60;2.90;;;;;;;;;;5046520;28;20523;-32
2022/01/03 06:52:14;;;;;;;3.92;2.80;;;;;;;;;;5045692;28;20029;-31
2022/01/03 06:54:40;;;;;;;4.18;2.95;;;;;;;;;;5046109;28;20030;-35
2022/01/03 06:57:05;;;;;;;4.70;2.67;;;;;;;;;;5046175;28;20185;-33
2022/01/03 06:59:31;;;;;;;3.72;3.00;;;;;;;;;;5045835;28;20031;-33
2022/01/03 07:01:56;;;;;;;16.63;3.35;;;;;;;;;;5046153;28;20253;-35
2022/01/03 07:04:22;;;;;;;5.65;3.15;;;;;;;;;;5045983;28;20032;-30
2022/01/03 07:06:47;;;;;;;6.10;3.00;;;;;;;;;;5045689;28;20461;-33
2022/01/03 07:09:13;;;;;;;5.05;2.78;;;;;;;;;;5045743;28;20045;-33
2022/01/03 07:11:38;;;;;;;4.93;2.83;;;;;;;;;;5043234;28;20090;-32
2022/01/03 07:19:42;;;;;;;5.03;2.83;;;;;;;;;;5034267;28;20473;-33
2022/01/03 07:22:08;;;;;;;5.10;2.80;;;;;;;;;;5034447;28;20021;-34
2022/01/03 07:24:35;;;;;;;3.58;2.70;;;;;;;;;;5035471;28;20052;-35
2022/01/03 07:27:01;;;;;;;11.48;3.00;;;;;;;;;;5038918;28;20395;-33
2022/01/03 07:29:27;;;;;;;11.95;2.78;;;;;;;;;;5033608;28;20476;-31
2022/01/03 07:31:52;;;;;;;8.32;2.72;;;;;;;;;;5033295;28;20040;-29
2022/01/03 07:34:18;;;;;;;8.38;2.65;;;;;;;;;;5033893;28;20061;-30
2022/01/03 07:36:43;;;;;;;3.85;3.10;;;;;;;;;;5028674;28;20032;-30
2022/01/03 07:39:09;;;;;;;20.05;3.10;;;;;;;;;;5025527;28;20084;-31
2022/01/03 07:41:34;;;;;;;6.85;2.90;;;;;;;;;;5025219;28;20677;-35
2022/01/03 07:44:00;;;;;;;7.53;3.05;;;;;;;;;;5025417;28;20021;-32
2022/01/03 07:46:25;;;;;;;17.38;4.63;;;;;;;;;;5025096;28;20112;-31
2022/01/03 07:48:51;;;;;;;18.52;10.60;;;;;;;;;;5025149;28;20476;-31
2022/01/03 07:51:16;;;;;;;17.48;7.82;;;;;;;;;;5024979;28;20029;-30
2022/01/03 07:53:44;;;;;;;12.60;6.40;;;;;;;;;;5024675;28;20041;-32
2022/01/03 07:56:10;;;;;;;12.80;6.53;;;;;;;;;;5024976;28;20056;-36
2022/01/03 07:58:36;;;;;;;10.73;5.75;;;;;;;;;;5024952;28;20138;-30
2022/01/03 08:01:02;;;;;;;9.50;5.53;;;;;;;;;;5024458;28;20035;-32
2022/01/03 08:03:28;;;;;;;12.15;5.50;;;;;;;;;;5024730;28;20040;-37
2022/01/03 08:05:54;;;;;;;14.88;5.45;;;;;;;;;;5024938;28;20026;-35
2022/01/03 08:08:19;;;;;;;13.95;6.05;;;;;;;;;;5024524;28;20160;-32
2022/01/03 08:10:46;;;;;;;13.48;6.40;;;;;;;;;;5025003;28;20037;-34
2022/01/03 08:13:12;;;;;;;15.68;6.30;;;;;;;;;;5024369;28;20116;-30
2022/01/03 08:15:38;;;;;;;10.80;6.53;;;;;;;;;;5024113;28;20163;-33
2022/01/03 08:18:04;;;;;;;9.02;5.75;;;;;;;;;;5024000;28;20033;-31
2022/01/03 08:20:30;;;;;;;9.57;5.85;;;;;;;;;;5024585;28;20090;-31
2022/01/03 08:22:55;;;;;;;10.05;5.95;;;;;;;;;;5024474;28;20337;-37
2022/01/03 08:25:21;;;;;;;10.07;5.60;;;;;;;;;;5024156;28;20472;-32
2022/01/03 08:27:46;;;;;;;11.30;6.57;;;;;;;;;;5024227;28;20120;-34
2022/01/03 08:30:12;;;;;;;12.48;6.68;;;;;;;;;;5024632;28;20044;-30
2022/01/03 08:32:37;;;;;;;10.05;6.00;;;;;;;;;;5023125;28;20034;-35
2022/01/03 08:35:03;;;;;;;13.48;6.10;;;;;;;;;;5027772;28;20040;-29
2022/01/03 08:37:29;;;;;;;11.52;6.10;;;;;;;;;;5043982;28;20069;-32
2022/01/03 08:39:54;;;;;;;11.80;6.45;;;;;;;;;;5043924;28;20431;-32
2022/01/03 08:42:20;;;;;;;12.25;6.50;;;;;;;;;;5043901;28;20029;-31
2022/01/03 08:44:46;;;;;;;14.02;6.95;;;;;;;;;;5044045;28;20418;-29
2022/01/03 08:47:12;;;;;;;10.95;6.55;;;;;;;;;;5043297;28;20116;-35
2022/01/03 08:49:37;;;;;;;12.48;7.45;;;;;;;;;;5043407;28;20029;-34
2022/01/03 08:52:05;;;;;;;19.20;7.78;;;;;;;;;;5042169;28;20025;-33
2022/01/03 08:54:31;;;;;;;11.27;6.82;;;;;;;;;;5030064;28;20037;-31
2022/01/03 08:56:56;;;;;;;12.52;7.30;;;;;;;;;;5042801;28;20067;-33
2022/01/03 08:59:22;;;;;;;17.42;6.70;;;;;;;;;;5043473;28;20036;-29
2022/01/03 09:01:48;;;;;;;12.07;7.50;;;;;;;;;;5028499;28;20427;-35
2022/01/03 09:04:13;;;;;;;12.32;7.43;;;;;;;;;;5023690;28;20029;-33
2022/01/03 09:06:39;;;;;;;12.68;7.03;;;;;;;;;;5022965;28;20037;-36
2022/01/03 09:09:06;;;;;;;15.05;7.88;;;;;;;;;;5023391;28;20041;-34
2022/01/03 09:11:31;;;;;;;15.65;7.88;;;;;;;;;;5035810;28;20033;-31
2022/01/03 09:13:57;;;;;;;16.02;7.38;;;;;;;;;;5023052;28;20519;-32
2022/01/03 09:16:23;;;;;;;16.13;7.25;;;;;;;;;;5023425;28;20037;-32
2022/01/03 09:18:48;;;;;;;17.08;8.05;;;;;;;;;;5031143;28;20608;-31
2022/01/03 09:21:14;;;;;;;15.32;7.93;;;;;;;;;;5043479;28;20075;-31
2022/01/03 09:23:45;;;;;;;12.32;6.57;;;;;;;;;;5043145;28;20028;-30
2022/01/03 09:28:57;;;;;;;14.77;6.90;;;;;;;;;;5023382;28;20069;-32
2022/01/03 09:31:31;;;;;;;21.25;8.20;;;;;;;;;;5023516;28;20107;-33
2022/01/03 09:33:58;;;;;;;11.85;6.88;;;;;;;;;;5023455;28;20106;-35
2022/01/03 09:36:24;;;;;;;15.02;8.18;;;;;;;;;;5023740;28;20041;-30
2022/01/03 09:38:50;;;;;;;13.05;7.43;;;;;;;;;;5023012;28;20041;-31
2022/01/03 09:41:18;;;;;;;22.50;7.45;;;;;;;;;;5022585;28;20061;-34
2022/01/03 09:43:50;;;;;;;18.77;7.68;;;;;;;;;;5022719;28;20037;-31
2022/01/03 09:46:19;;;;;;;10.60;6.47;;;;;;;;;;5023080;28;20032;-34
2022/01/03 09:48:51;;;;;;;21.50;7.85;;;;;;;;;;5023084;28;20037;-34
2022/01/03 09:51:17;;;;;;;11.27;7.18;;;;;;;;;;5022659;28;20037;-33
2022/01/03 09:53:42;;;;;;;13.50;7.03;;;;;;;;;;5022597;28;20439;-37
2022/01/03 09:56:08;;;;;;;13.88;7.40;;;;;;;;;;5022343;28;20029;-37
2022/01/03 09:58:33;;;;;;;13.30;7.40;;;;;;;;;;5022108;28;20029;-31
2022/01/03 10:00:59;;;;;;;11.05;6.97;;;;;;;;;;5022453;28;20037;-30
2022/01/03 10:03:25;;;;;;;14.43;7.50;;;;;;;;;;5021039;28;20360;-36
2022/01/03 10:05:50;;;;;;;12.73;8.07;;;;;;;;;;5022102;28;20029;-33
2022/01/03 10:08:16;;;;;;;13.02;7.55;;;;;;;;;;5022241;28;20041;-34
2022/01/03 10:10:41;;;;;;;17.63;8.13;;;;;;;;;;5022105;28;20037;-31
2022/01/03 10:13:07;;;;;;;16.80;10.55;;;;;;;;;;5020492;28;20052;-37
2022/01/03 10:15:37;;;;;;;13.30;9.32;;;;;;;;;;5022337;28;20041;-33
2022/01/03 10:18:03;;;;;;;11.63;8.98;;;;;;;;;;5020429;28;20046;-30
2022/01/03 10:20:30;;;;;;;14.43;9.65;;;;;;;;;;5020290;28;20037;-35
2022/01/03 10:23:07;;;;;;;13.90;9.90;;;;;;;;;;5022265;28;20044;-32
2022/01/03 10:25:34;;;;;;;11.93;8.38;;;;;;;;;;5021799;28;20034;-31
2022/01/03 10:28:00;;;;;;;15.50;10.65;;;;;;;;;;5031459;28;20033;-34
2022/01/03 10:30:33;;;;;;;20.40;13.85;;;;;;;;;;5041944;28;20082;-31
2022/01/03 10:32:58;;;;;;;;;;;;;;;;;;5042616;28;20021;-32
2022/01/03 10:35:24;;;;;;;20.52;14.68;;;;;;;;;;5041310;28;19983;-34
2022/01/03 10:37:49;;;;;;;21.02;13.40;;;;;;;;;;5040738;28;20021;-37
2022/01/03 10:40:27;;;;;;;17.88;13.70;;;;;;;;;;5040156;28;20037;-35
2022/01/03 10:42:56;;;;;;;20.95;12.88;;;;;;;;;;5042339;28;20025;-32
2022/01/03 10:45:32;;;;;;;16.75;11.63;;;;;;;;;;5041836;28;20026;-34
2022/01/03 10:47:58;;;;;;;16.88;11.70;;;;;;;;;;5040442;28;20032;-30
2022/01/03 10:50:24;;;;;;;15.35;11.73;;;;;;;;;;5041615;28;20024;-35
2022/01/03 10:52:50;;;;;;;16.98;11.85;;;;;;;;;;5042120;28;20040;-32
2022/01/03 10:55:20;;;;;;;19.80;13.18;;;;;;;;;;5041736;28;20406;-30
2022/01/03 10:57:55;;;;;;;19.63;13.77;;;;;;;;;;5042031;28;20033;-35
2022/01/03 11:00:30;;;;;;;23.63;14.10;;;;;;;;;;5041631;28;20056;-32
2022/01/03 11:03:23;;;;;;;19.73;13.52;;;;;;;;;;5041795;28;20029;-31
2022/01/03 11:05:57;;;;;;;17.20;12.18;;;;;;;;;;5041561;28;20029;-34
2022/01/03 11:11:39;;;;;;;16.27;10.57;;;;;;;;;;5020197;28;20047;-34
2022/01/03 11:14:06;;;;;;;15.60;10.07;;;;;;;;;;5022137;28;20053;-33
2022/01/03 11:16:45;;;;;;;14.85;11.05;;;;;;;;;;5022181;28;20587;-36
2022/01/03 11:19:12;;;;;;;17.40;11.27;;;;;;;;;;5021982;28;20041;-35
2022/01/03 11:21:44;;;;;;;15.25;11.38;;;;;;;;;;5021838;28;20547;-30
2022/01/03 11:24:14;;;;;;;14.85;10.45;;;;;;;;;;5021916;28;20040;-35
2022/01/03 11:26:46;;;;;;;16.38;10.70;;;;;;;;;;5029345;28;20452;-33
2022/01/03 11:32:56;;;;;;;14.60;10.25;;;;;;;;;;5012035;28;20041;-31
2022/01/03 11:35:22;;;;;;;18.25;10.63;;;;;;;;;;5002059;28;20038;-32
2022/01/03 11:37:48;;;;;;;18.15;9.95;;;;;;;;;;5038217;28;20648;-31
2022/01/03 11:40:15;;;;;;;18.52;9.90;;;;;;;;;;5043962;28;20040;-36
2022/01/03 11:42:41;;;;;;;18.52;9.50;;;;;;;;;;5045286;28;20490;-36
2022/01/03 11:45:06;;;;;;;19.70;9.52;;;;;;;;;;5044955;28;20140;-31
2022/01/03 11:47:32;;;;;;;19.00;10.27;;;;;;;;;;5045079;28;20120;-34
2022/01/03 11:49:58;;;;;;;23.08;9.80;;;;;;;;;;5043658;28;20044;-34
2022/01/03 11:52:23;;;;;;;20.67;10.25;;;;;;;;;;5045168;28;20408;-32
2022/01/03 11:54:52;;;;;;;20.38;10.82;;;;;;;;;;5043741;28;20816;-33
2022/01/03 11:57:27;;;;;;;19.17;10.20;;;;;;;;;;5043452;28;20533;-33
2022/01/03 12:05:51;;;;;;;19.63;10.80;;;;;;;;;;5044854;28;20043;-32
2022/01/03 12:08:25;;;;;;;19.45;10.95;;;;;;;;;;5042287;28;20076;-35
2022/01/03 12:10:51;;;;;;;18.02;10.35;;;;;;;;;;5043116;28;20033;-37
2022/01/03 12:13:16;;;;;;;20.15;10.98;;;;;;;;;;5044223;28;20148;-34
2022/01/03 12:15:42;;;;;;;23.02;13.00;;;;;;;;;;5044246;28;20424;-34
2022/01/03 12:18:34;;;;;;;24.48;12.15;;;;;;;;;;5044665;28;20036;-33
2022/01/03 12:21:00;;;;;;;20.42;12.25;;;;;;;;;;5042977;28;20783;-32
2022/01/03 12:23:34;;;;;;;24.58;11.80;;;;;;;;;;5044208;28;20033;-35
2022/01/03 12:26:19;;;;;;;19.45;12.52;;;;;;;;;;5044181;28;20032;-33
2022/01/03 12:29:02;;;;;;;18.45;11.98;;;;;;;;;;5041383;28;20116;-36
2022/01/03 12:31:50;;;;;;;19.02;11.50;;;;;;;;;;5032320;28;20496;-36
2022/01/03 12:34:16;;;;;;;19.88;10.95;;;;;;;;;;5044993;28;20071;-36
2022/01/03 12:36:42;;;;;;;15.90;10.60;;;;;;;;;;5042149;28;20162;-34
2022/01/03 12:39:08;;;;;;;16.42;11.57;;;;;;;;;;5042538;28;20041;-38
2022/01/03 12:41:44;;;;;;;19.40;10.90;;;;;;;;;;5040708;28;20056;-31
2022/01/03 12:44:11;;;;;;;19.67;10.63;;;;;;;;;;5044154;28;20090;-34
2022/01/03 12:46:36;;;;;;;16.08;10.75;;;;;;;;;;5043550;28;20459;-34
2022/01/03 12:49:25;;;;;;;15.07;10.43;;;;;;;;;;5044124;28;20089;-31
2022/01/03 12:51:51;;;;;;;19.15;9.60;;;;;;;;;;5044058;28;20522;-31
2022/01/03 12:54:39;;;;;;;18.08;10.18;;;;;;;;;;5044073;28;20036;-35
2022/01/03 12:57:13;;;;;;;19.58;9.88;;;;;;;;;;5044239;28;20414;-31
2022/01/03 12:59:39;;;;;;;16.98;9.63;;;;;;;;;;5043765;28;20056;-34
2022/01/03 13:02:25;;;;;;;17.33;9.63;;;;;;;;;;5043456;28;20052;-35
2022/01/03 13:04:51;;;;;;;19.02;10.38;;;;;;;;;;5043928;28;20025;-34
2022/01/03 13:07:23;;;;;;;17.52;9.73;;;;;;;;;;5042273;28;20566;-30
2022/01/03 13:09:49;;;;;;;13.85;9.18;;;;;;;;;;5058279;28;20049;-32
2022/01/03 13:12:15;;;;;;;15.30;9.15;;;;;;;;;;5043788;28;20040;-33
2022/01/03 13:14:40;;;;;;;15.93;9.57;;;;;;;;;;5043644;28;20064;-36
2022/01/03 13:17:06;;;;;;;19.98;10.07;;;;;;;;;;5043914;28;20033;-35
2022/01/03 13:19:33;;;;;;;21.80;9.27;;;;;;;;;;5043499;28;20472;-34
2022/01/03 13:22:09;;;;;;;17.55;9.65;;;;;;;;;;5043375;28;20029;-33
2022/01/03 13:24:44;;;;;;;17.60;9.35;;;;;;;;;;5043708;28;20036;-35
2022/01/03 13:27:18;;;;;;;13.70;9.52;;;;;;;;;;5043431;28;20077;-29
2022/01/03 13:29:48;;;;;;;14.60;9.38;;;;;;;;;;5032880;28;20467;-33
2022/01/03 13:32:24;;;;;;;20.23;8.93;;;;;;;;;;5024770;28;20033;-33
2022/01/03 13:34:50;;;;;;;17.85;9.45;;;;;;;;;;5023435;28;20029;-37
2022/01/03 13:37:16;;;;;;;20.98;9.02;;;;;;;;;;5023387;28;20380;-30
2022/01/03 13:39:42;;;;;;;30.00;10.90;;;;;;;;;;5030678;28;20029;-31
2022/01/03 13:42:23;;;;;;;15.85;10.02;;;;;;;;;;5039349;28;20036;-34
2022/01/03 13:50:12;;;;;;;20.00;9.60;;;;;;;;;;5023367;28;20566;-34
2022/01/03 13:52:39;;;;;;;18.02;9.32;;;;;;;;;;5023006;28;20072;-35
2022/01/03 13:55:14;;;;;;;22.75;9.18;;;;;;;;;;5023361;28;20032;-29
2022/01/03 13:57:40;;;;;;;31.38;10.18;;;;;;;;;;5022875;28;20076;-31
2022/01/03 14:00:06;;;;;;;17.55;8.80;;;;;;;;;;5039820;28;20060;-31
2022/01/03 14:02:32;;;;;;;23.08;9.60;;;;;;;;;;5042734;28;20041;-31
2022/01/03 14:04:58;;;;;;;22.50;9.35;;;;;;;;;;5043064;28;20072;-32
2022/01/03 14:07:24;;;;;;;16.40;8.77;;;;;;;;;;5042847;28;20033;-33
2022/01/03 14:09:58;;;;;;;15.85;8.80;;;;;;;;;;5042948;28;20387;-31
2022/01/03 14:12:25;;;;;;;17.38;8.98;;;;;;;;;;5042902;28;20043;-33
2022/01/03 14:14:59;;;;;;;12.63;8.63;;;;;;;;;;5042818;28;20037;-31
2022/01/03 14:17:24;;;;;;;13.70;9.40;;;;;;;;;;5043072;28;20041;-33
2022/01/03 14:20:00;;;;;;;21.50;8.70;;;;;;;;;;5041851;28;20029;-29
2022/01/03 14:22:33;;;;;;;15.23;8.55;;;;;;;;;;5043058;28;20045;-33
2022/01/03 14:25:00;;;;;;;11.65;8.82;;;;;;;;;;5043012;28;20025;-30
2022/01/03 14:27:38;;;;;;;12.80;8.40;;;;;;;;;;5043259;28;20040;-34
2022/01/03 14:30:20;;;;;;;17.98;9.20;;;;;;;;;;5040498;28;20090;-33
2022/01/03 14:32:48;;;;;;;11.75;8.35;;;;;;;;;;5041909;28;20670;-34
2022/01/03 14:35:14;;;;;;;16.85;8.68;;;;;;;;;;5042778;28;20017;-30
2022/01/03 14:37:39;;;;;;;13.27;8.60;;;;;;;;;;5043207;28;20025;-35
2022/01/03 14:40:06;;;;;;;18.95;8.45;;;;;;;;;;5043074;28;20830;-35
2022/01/03 14:42:34;;;;;;;14.95;8.93;;;;;;;;;;5043065;28;20098;-33
2022/01/03 14:45:18;;;;;;;12.52;8.25;;;;;;;;;;5042632;28;20032;-34
2022/01/03 14:47:43;;;;;;;17.02;8.30;;;;;;;;;;5041416;28;20406;-29
2022/01/03 14:50:09;;;;;;;12.98;8.25;;;;;;;;;;5042491;28;20017;-31
2022/01/03 14:52:40;;;;;;;15.20;8.32;;;;;;;;;;5042813;28;20027;-32
2022/01/03 14:55:08;;;;;;;14.02;8.48;;;;;;;;;;5042481;28;20025;-30
2022/01/03 14:57:43;;;;;;;16.17;8.15;;;;;;;;;;5042401;28;20033;-33
2022/01/03 15:00:09;;;;;;;15.43;8.38;;;;;;;;;;5042354;28;20032;-34
2022/01/03 15:02:34;;;;;;;16.50;8.40;;;;;;;;;;5042525;28;20029;-31
2022/01/03 15:05:05;;;;;;;12.05;8.60;;;;;;;;;;5046014;28;20032;-33
2022/01/03 15:07:31;;;;;;;14.50;9.05;;;;;;;;;;5044765;28;20137;-33
2022/01/03 15:09:57;;;;;;;13.30;8.45;;;;;;;;;;5046240;28;20502;-37